Time;durP1;ratioP1;P1;durP2;ratioP2;P2;SDS_P1;SDS_P2;PMS_P1;PMS_P2;Temp;Humidity;BMP_temperature;BMP_pressure;BME280_temperature;BME280_humidity;BME280_pressure;Samples;Min_cycle;Max_cycle;Signal;HPM_P1;HPM_P2
2021/12/19 00:01:25;;;;;;;6.30;2.15;;;11.50;92.60;;;;;;5051437;28;20463;-73
2021/12/19 00:04:29;;;;;;;5.22;2.55;;;11.50;92.60;;;;;;5040022;28;20679;-73
2021/12/19 00:09:28;;;;;;;6.07;1.67;;;11.50;92.60;;;;;;5031984;28;20556;-73
2021/12/19 00:11:55;;;;;;;11.73;3.03;;;11.50;92.60;;;;;;5040274;28;20033;-73
2021/12/19 00:14:23;;;;;;;9.15;3.22;;;11.50;92.60;;;;;;5036099;28;20033;-73
2021/12/19 00:16:52;;;;;;;17.42;4.93;;;11.50;92.60;;;;;;5041827;28;20045;-73
2021/12/19 00:19:18;;;;;;;13.48;5.88;;;11.50;92.60;;;;;;5047518;28;20029;-73
2021/12/19 00:21:44;;;;;;;14.80;6.35;;;11.40;92.60;;;;;;5036646;28;20484;-73
2021/12/19 00:24:10;;;;;;;13.65;4.68;;;11.40;92.60;;;;;;5040468;28;20120;-73
2021/12/19 00:26:37;;;;;;;17.23;6.88;;;11.40;92.50;;;;;;5031149;28;20037;-73
2021/12/19 00:29:03;;;;;;;15.02;6.65;;;11.40;92.50;;;;;;5044085;28;20033;-73
2021/12/19 00:31:31;;;;;;;19.88;6.75;;;11.40;92.50;;;;;;5032590;28;20065;-73
2021/12/19 00:33:57;;;;;;;15.70;6.05;;;11.40;92.60;;;;;;5044484;28;20029;-73
2021/12/19 00:36:23;;;;;;;20.60;6.95;;;11.40;92.60;;;;;;5044970;28;20055;-73
2021/12/19 00:38:48;;;;;;;19.85;7.43;;;11.40;92.60;;;;;;5031154;28;20428;-73
2021/12/19 00:41:14;;;;;;;15.55;5.45;;;11.40;92.60;;;;;;5040904;28;20025;-73
2021/12/19 00:43:53;;;;;;;15.00;5.43;;;11.40;92.60;;;;;;5055545;28;20037;-73
2021/12/19 00:46:21;;;;;;;14.20;4.80;;;11.40;92.60;;;;;;5045406;28;20473;-73
2021/12/19 00:48:51;;;;;;;9.13;3.25;;;11.40;92.60;;;;;;5051731;28;20044;-73
2021/12/19 00:51:22;;;;;;;10.82;2.53;;;11.40;92.60;;;;;;5055221;28;20057;-73
2021/12/19 00:53:48;;;;;;;10.63;2.60;;;11.40;92.50;;;;;;5054309;28;20392;-73
2021/12/19 00:56:15;;;;;;;7.88;2.30;;;11.40;92.40;;;;;;5055472;28;20029;-73
2021/12/19 00:58:41;;;;;;;8.75;2.13;;;11.30;92.40;;;;;;5049724;28;20033;-72
2021/12/19 01:01:09;;;;;;;7.13;2.20;;;11.30;92.50;;;;;;5034703;28;20061;-73
2021/12/19 01:03:35;;;;;;;9.32;3.35;;;11.40;92.50;;;;;;5054518;28;20439;-73
2021/12/19 01:06:01;;;;;;;8.05;2.03;;;11.30;92.40;;;;;;5042015;28;20121;-73
2021/12/19 01:08:27;;;;;;;13.00;2.38;;;11.30;92.40;;;;;;5048198;28;20057;-73
2021/12/19 01:10:53;;;;;;;4.88;1.60;;;11.30;92.50;;;;;;5048536;28;20443;-72
2021/12/19 01:13:19;;;;;;;5.38;1.80;;;11.30;92.50;;;;;;5048696;28;20036;-73
2021/12/19 01:15:46;;;;;;;4.43;1.00;;;11.30;92.50;;;;;;5047636;28;20029;-73
2021/12/19 01:18:12;;;;;;;8.13;1.67;;;11.30;92.50;;;;;;5042750;28;20095;-73
2021/12/19 01:20:41;;;;;;;3.88;0.77;;;11.30;92.50;;;;;;5039963;28;20116;-72
2021/12/19 01:23:07;;;;;;;2.72;0.77;;;11.30;92.50;;;;;;5050056;28;20099;-72
2021/12/19 01:25:33;;;;;;;0.70;0.70;;;11.30;92.60;;;;;;5044889;28;20030;-72
2021/12/19 01:27:59;;;;;;;4.35;1.00;;;11.20;92.60;;;;;;5050658;28;20033;-73
2021/12/19 01:30:25;;;;;;;4.63;1.00;;;11.20;92.50;;;;;;5054840;28;20037;-72
2021/12/19 01:32:51;;;;;;;2.97;0.70;;;11.20;92.60;;;;;;5044157;28;20480;-72
2021/12/19 01:35:20;;;;;;;2.72;0.65;;;11.20;92.60;;;;;;5050176;28;20767;-73
2021/12/19 01:37:47;;;;;;;0.68;0.55;;;11.20;92.70;;;;;;5046640;28;20033;-72
2021/12/19 01:40:15;;;;;;;1.02;0.50;;;11.20;92.80;;;;;;5034850;28;20037;-73
2021/12/19 01:42:44;;;;;;;7.97;0.98;;;11.10;92.90;;;;;;5042164;28;20108;-72
2021/12/19 01:45:13;;;;;;;0.57;0.57;;;11.00;92.90;;;;;;5034506;28;20388;-72
2021/12/19 01:47:40;;;;;;;7.20;0.80;;;11.10;92.90;;;;;;5034345;28;20034;-72
2021/12/19 01:50:10;;;;;;;4.75;0.80;;;11.10;93.00;;;;;;5044184;28;20061;-72
2021/12/19 01:52:35;;;;;;;1.02;0.52;;;11.00;92.90;;;;;;5033596;28;20053;-73
2021/12/19 01:55:01;;;;;;;1.95;1.33;;;11.00;93.00;;;;;;5033214;28;20087;-73
2021/12/19 01:57:27;;;;;;;1.75;0.88;;;11.00;93.00;;;;;;5048181;28;20086;-73
2021/12/19 01:59:54;;;;;;;3.50;0.80;;;11.00;92.90;;;;;;5053978;28;20111;-73
2021/12/19 02:02:20;;;;;;;5.35;1.10;;;11.00;92.80;;;;;;5054023;28;20112;-73
2021/12/19 02:04:49;;;;;;;2.47;0.80;;;11.10;92.80;;;;;;5044583;28;20044;-73
2021/12/19 02:07:15;;;;;;;3.05;0.90;;;11.00;92.80;;;;;;5042396;28;20033;-73
2021/12/19 02:09:44;;;;;;;1.65;0.68;;;11.00;92.80;;;;;;5034121;28;20041;-73
2021/12/19 02:12:11;;;;;;;1.70;0.98;;;11.00;92.90;;;;;;5033135;28;20036;-73
2021/12/19 02:14:37;;;;;;;2.38;0.73;;;11.10;92.90;;;;;;5045661;28;20089;-73
2021/12/19 02:17:04;;;;;;;6.95;1.75;;;11.00;92.90;;;;;;5048763;28;20056;-73
2021/12/19 02:19:34;;;;;;;4.45;1.10;;;11.00;92.90;;;;;;5053257;28;20111;-72
2021/12/19 02:22:00;;;;;;;1.73;1.10;;;11.00;92.80;;;;;;5038033;28;20034;-73
2021/12/19 02:24:25;;;;;;;7.75;1.33;;;11.00;92.90;;;;;;5043231;28;20040;-73
2021/12/19 02:26:51;;;;;;;8.20;1.98;;;11.00;92.80;;;;;;5036604;28;20025;-73
2021/12/19 02:29:17;;;;;;;1.98;1.08;;;11.00;92.80;;;;;;5045086;28;20115;-73
2021/12/19 02:31:44;;;;;;;3.17;1.08;;;11.00;92.80;;;;;;5044755;28;20112;-73
2021/12/19 02:34:17;;;;;;;4.93;1.20;;;11.00;92.80;;;;;;5046706;28;20032;-73
2021/12/19 02:50:35;;;;;;;3.17;0.70;;;10.90;93.00;;;;;;5051545;28;20098;-72
2021/12/19 02:53:01;;;;;;;3.33;0.82;;;10.80;93.00;;;;;;5040804;28;20489;-73
2021/12/19 02:55:27;;;;;;;1.98;1.00;;;10.80;93.00;;;;;;5039249;28;20082;-73
2021/12/19 02:57:52;;;;;;;7.78;1.40;;;10.80;93.00;;;;;;5040116;28;20124;-73
2021/12/19 03:00:27;;;;;;;3.67;1.25;;;10.90;93.10;;;;;;5045284;28;20163;-73
2021/12/19 03:02:53;;;;;;;1.85;0.95;;;10.90;93.10;;;;;;5033790;28;20041;-73
2021/12/19 03:05:19;;;;;;;2.17;1.02;;;10.80;93.30;;;;;;5047288;28;20034;-73
2021/12/19 03:07:45;;;;;;;4.88;1.50;;;10.80;93.00;;;;;;5041660;28;20389;-73
2021/12/19 03:13:24;;;;;;;4.80;1.27;;;10.80;92.90;;;;;;5034016;28;20041;-73
2021/12/19 03:18:32;;;;;;;11.23;2.22;;;10.80;93.00;;;;;;5032397;28;20133;-73
2021/12/19 03:21:11;;;;;;;6.90;1.63;;;10.80;93.00;;;;;;5044658;28;20099;-73
2021/12/19 03:23:37;;;;;;;12.32;2.33;;;10.80;93.10;;;;;;5052049;28;20511;-73
2021/12/19 03:26:03;;;;;;;9.15;1.63;;;10.80;93.10;;;;;;5052468;28;20043;-73
2021/12/19 03:28:29;;;;;;;9.55;1.75;;;10.80;93.10;;;;;;5051826;28;20026;-73
2021/12/19 03:30:54;;;;;;;6.45;1.50;;;10.80;93.20;;;;;;5052725;28;20032;-73
2021/12/19 03:33:20;;;;;;;4.40;1.13;;;10.80;93.20;;;;;;5048690;28;20392;-72
2021/12/19 03:35:46;;;;;;;4.97;1.20;;;10.90;93.20;;;;;;5034536;28;20040;-73
2021/12/19 03:38:14;;;;;;;4.55;1.45;;;10.90;93.30;;;;;;5048808;28;20587;-73
2021/12/19 03:40:44;;;;;;;6.90;1.45;;;10.90;93.30;;;;;;5043657;28;20162;-73
2021/12/19 03:43:15;;;;;;;6.15;1.63;;;10.80;93.30;;;;;;5033858;28;20124;-73
2021/12/19 03:45:43;;;;;;;11.68;2.00;;;10.90;93.30;;;;;;5032704;28;20033;-73
2021/12/19 03:48:12;;;;;;;15.35;2.30;;;10.90;93.40;;;;;;5039329;28;20075;-73
2021/12/19 03:50:42;;;;;;;11.38;1.65;;;10.80;93.30;;;;;;5050317;28;20151;-73
2021/12/19 03:53:08;;;;;;;10.75;1.83;;;10.80;93.20;;;;;;5040635;28;20696;-73
2021/12/19 03:55:34;;;;;;;12.48;2.88;;;10.80;93.20;;;;;;5037078;28;20121;-73
2021/12/19 03:58:02;;;;;;;16.30;3.35;;;10.80;93.10;;;;;;5031467;28;20045;-73
2021/12/19 04:00:28;;;;;;;7.95;2.30;;;10.90;93.00;;;;;;5046099;28;20026;-73
2021/12/19 04:02:57;;;;;;;12.18;2.05;;;10.80;93.00;;;;;;5040994;28;20476;-73
2021/12/19 04:05:23;;;;;;;4.57;1.88;;;10.80;92.90;;;;;;5051993;28;20037;-73
2021/12/19 04:07:49;;;;;;;13.88;2.38;;;10.80;93.00;;;;;;5040970;28;20034;-73
2021/12/19 04:10:15;;;;;;;8.35;2.90;;;10.80;92.90;;;;;;5044674;28;20041;-73
2021/12/19 04:12:42;;;;;;;15.02;3.95;;;10.80;92.90;;;;;;5044449;28;20121;-73
2021/12/19 04:15:09;;;;;;;15.10;3.10;;;10.80;92.90;;;;;;5033335;28;20025;-73
2021/12/19 04:17:35;;;;;;;12.10;2.97;;;10.70;92.90;;;;;;5035415;28;20045;-72
2021/12/19 04:20:01;;;;;;;13.23;2.85;;;10.80;92.90;;;;;;5035876;28;20022;-72
2021/12/19 04:22:26;;;;;;;10.75;2.92;;;10.80;93.00;;;;;;5049045;28;20533;-73
2021/12/19 04:24:53;;;;;;;9.23;2.25;;;10.80;93.00;;;;;;5035321;28;20021;-73
2021/12/19 04:27:19;;;;;;;14.88;3.58;;;10.80;93.00;;;;;;5048663;28;20036;-73
2021/12/19 04:29:45;;;;;;;17.48;3.00;;;10.80;93.00;;;;;;5035861;28;20025;-73
2021/12/19 04:32:12;;;;;;;18.50;3.88;;;10.80;93.00;;;;;;5048112;28;20033;-73
2021/12/19 04:34:38;;;;;;;7.80;3.20;;;10.80;93.00;;;;;;5043769;28;20116;-72
2021/12/19 04:37:17;;;;;;;11.57;3.08;;;10.80;93.00;;;;;;5042396;28;20124;-73
2021/12/19 04:39:58;;;;;;;21.85;3.97;;;10.80;93.00;;;;;;5055023;28;20029;-72
2021/12/19 04:56:14;;;;;;;12.75;3.35;;;10.80;92.90;;;;;;5055365;28;20029;-73
2021/12/19 04:58:51;;;;;;;16.02;4.57;;;10.80;92.90;;;;;;5035198;28;20033;-72
2021/12/19 05:01:58;;;;;;;10.63;3.95;;;10.90;92.90;;;;;;5037621;28;20104;-72
2021/12/19 05:15:37;;;;;;;18.75;5.10;;;10.80;92.80;;;;;;5044816;28;20488;-73
2021/12/19 05:18:06;;;;;;;16.90;4.40;;;10.80;92.80;;;;;;5042129;28;20044;-73
2021/12/19 05:20:34;;;;;;;18.83;5.22;;;10.90;92.90;;;;;;5054105;28;20373;-72
2021/12/19 05:23:08;;;;;;;18.88;5.63;;;10.80;92.90;;;;;;5041349;28;20052;-73
2021/12/19 05:25:33;;;;;;;15.82;4.90;;;10.90;92.80;;;;;;5054879;28;20079;-72
2021/12/19 05:28:00;;;;;;;21.83;4.72;;;10.80;92.80;;;;;;5038239;28;20025;-72
2021/12/19 05:30:26;;;;;;;15.45;4.47;;;10.90;92.90;;;;;;5034858;28;20120;-73
2021/12/19 05:32:54;;;;;;;18.45;4.38;;;10.90;92.80;;;;;;5041345;28;20487;-73
2021/12/19 05:35:54;;;;;;;20.00;4.35;;;10.90;92.90;;;;;;5053994;28;20360;-73
2021/12/19 05:46:29;;;;;;;11.15;3.97;;;10.90;92.70;;;;;;5035278;28;20037;-73
2021/12/19 05:48:55;;;;;;;13.65;4.05;;;10.90;92.60;;;;;;5040897;28;20029;-73
2021/12/19 05:51:21;;;;;;;12.27;4.07;;;10.80;92.60;;;;;;5053875;28;20124;-73
2021/12/19 05:53:47;;;;;;;22.23;4.18;;;10.80;92.60;;;;;;5046808;28;20499;-72
2021/12/19 05:56:13;;;;;;;9.30;3.05;;;10.80;92.60;;;;;;5034600;28;20443;-74
2021/12/19 05:58:39;;;;;;;14.70;3.13;;;10.90;92.70;;;;;;5054216;28;20045;-74
2021/12/19 06:01:06;;;;;;;8.52;2.15;;;10.80;92.70;;;;;;5052530;28;20029;-73
2021/12/19 06:03:31;;;;;;;9.88;2.03;;;10.80;92.90;;;;;;5041741;28;20158;-73
2021/12/19 06:05:57;;;;;;;9.95;2.22;;;10.90;92.90;;;;;;5054081;28;20024;-73
2021/12/19 06:08:23;;;;;;;8.13;1.83;;;10.90;92.90;;;;;;5040557;28;20387;-72
2021/12/19 06:10:49;;;;;;;11.95;1.60;;;10.90;92.80;;;;;;5043413;28;20025;-73
2021/12/19 06:13:14;;;;;;;11.40;1.90;;;10.90;92.70;;;;;;5047045;28;20065;-73
2021/12/19 06:15:40;;;;;;;12.82;1.48;;;10.90;92.60;;;;;;5044444;28;20028;-72
2021/12/19 06:18:06;;;;;;;5.97;1.70;;;10.90;92.60;;;;;;5048941;28;20120;-73
2021/12/19 06:20:31;;;;;;;8.27;2.20;;;10.80;92.70;;;;;;5033852;28;20033;-73
2021/12/19 06:22:58;;;;;;;12.45;2.10;;;10.80;92.70;;;;;;5033352;28;20033;-73
2021/12/19 06:25:24;;;;;;;10.25;1.88;;;10.80;92.80;;;;;;5033115;28;20064;-73
2021/12/19 06:27:49;;;;;;;15.02;2.25;;;10.80;92.80;;;;;;5046542;28;20473;-73
2021/12/19 06:30:15;;;;;;;13.05;2.25;;;10.80;92.80;;;;;;5045213;28;20029;-73
2021/12/19 06:32:41;;;;;;;14.02;3.05;;;10.80;92.80;;;;;;5048013;28;20030;-72
2021/12/19 06:35:17;;;;;;;12.05;3.03;;;10.80;92.80;;;;;;5045667;28;20152;-72
2021/12/19 06:37:43;;;;;;;15.27;1.88;;;10.80;92.80;;;;;;5044894;28;20040;-73
2021/12/19 06:40:12;;;;;;;5.63;1.67;;;10.80;92.80;;;;;;5047327;28;20032;-73
2021/12/19 06:42:38;;;;;;;10.55;1.80;;;10.80;92.80;;;;;;5053339;28;20567;-73
2021/12/19 06:45:04;;;;;;;13.95;2.50;;;10.80;92.80;;;;;;5039272;28;20113;-73
2021/12/19 06:47:30;;;;;;;7.28;1.75;;;10.80;92.80;;;;;;5053347;28;20116;-73
2021/12/19 06:49:56;;;;;;;21.73;3.03;;;10.80;92.80;;;;;;5039520;28;20203;-73
2021/12/19 06:52:21;;;;;;;9.32;2.42;;;10.80;92.80;;;;;;5052284;28;20041;-73
2021/12/19 06:54:47;;;;;;;11.38;2.10;;;10.80;92.80;;;;;;5050426;28;20071;-73
2021/12/19 06:57:13;;;;;;;21.02;2.75;;;10.80;92.70;;;;;;5042591;28;20441;-73
2021/12/19 06:59:38;;;;;;;14.10;3.20;;;10.90;92.70;;;;;;5049219;28;20031;-73
2021/12/19 07:02:04;;;;;;;9.32;1.70;;;10.90;92.70;;;;;;5033068;28;20083;-73
2021/12/19 07:04:30;;;;;;;8.40;2.00;;;10.90;92.70;;;;;;5045531;28;20045;-73
2021/12/19 07:06:56;;;;;;;6.45;1.50;;;10.80;92.70;;;;;;5032508;28;20025;-73
2021/12/19 07:09:21;;;;;;;12.32;1.95;;;10.90;92.80;;;;;;5032436;28;20030;-73
2021/12/19 07:11:47;;;;;;;9.50;1.52;;;10.90;92.80;;;;;;5032236;28;20029;-73
2021/12/19 07:14:13;;;;;;;8.30;1.70;;;10.90;92.70;;;;;;5031047;28;20389;-73
2021/12/19 07:16:39;;;;;;;4.15;1.67;;;10.90;92.70;;;;;;5032141;28;20021;-73
2021/12/19 07:19:04;;;;;;;6.28;1.55;;;10.90;92.70;;;;;;5033844;28;20537;-73
2021/12/19 07:21:30;;;;;;;5.63;1.42;;;11.00;92.70;;;;;;5032218;28;20033;-73
2021/12/19 07:23:56;;;;;;;13.55;2.47;;;11.00;92.70;;;;;;5034549;28;20075;-73
2021/12/19 07:26:23;;;;;;;18.98;1.95;;;11.00;92.70;;;;;;5036720;28;20056;-73
2021/12/19 07:28:50;;;;;;;13.13;2.00;;;10.90;92.60;;;;;;5033398;28;20079;-73
2021/12/19 07:31:20;;;;;;;3.97;1.45;;;10.90;92.70;;;;;;5032060;28;20061;-73
2021/12/19 07:33:46;;;;;;;17.70;2.38;;;10.90;92.80;;;;;;5034156;28;20034;-73
2021/12/19 07:36:12;;;;;;;11.13;2.45;;;10.90;92.80;;;;;;5031753;28;20026;-73
2021/12/19 07:38:50;;;;;;;12.05;2.50;;;10.80;92.80;;;;;;5031823;28;20033;-73
2021/12/19 07:41:16;;;;;;;11.27;1.63;;;10.90;92.80;;;;;;5033796;28;20393;-73
2021/12/19 07:43:42;;;;;;;6.22;1.58;;;10.90;92.80;;;;;;5035980;28;20037;-72
2021/12/19 07:46:07;;;;;;;9.85;2.60;;;10.90;92.80;;;;;;5033277;28;20432;-73
2021/12/19 07:48:33;;;;;;;8.55;2.10;;;11.00;92.80;;;;;;5043401;28;20600;-72
2021/12/19 07:50:59;;;;;;;10.00;2.30;;;11.00;92.70;;;;;;5035425;28;20045;-72
2021/12/19 07:53:25;;;;;;;2.60;1.42;;;11.00;92.70;;;;;;5036162;28;20465;-72
2021/12/19 07:55:50;;;;;;;13.50;2.28;;;11.00;92.70;;;;;;5034897;28;20112;-72
2021/12/19 07:58:16;;;;;;;7.30;1.55;;;11.00;92.70;;;;;;5038506;28;20056;-72
2021/12/19 08:00:42;;;;;;;11.90;1.88;;;11.00;92.70;;;;;;5041493;28;20096;-72
2021/12/19 08:03:07;;;;;;;13.60;2.75;;;11.00;92.70;;;;;;5043436;28;20487;-73
2021/12/19 08:05:33;;;;;;;10.70;1.92;;;11.00;92.70;;;;;;5049645;28;20026;-73
2021/12/19 08:08:02;;;;;;;17.73;3.85;;;10.90;92.70;;;;;;5035783;28;20064;-72
2021/12/19 08:13:02;;;;;;;16.02;2.30;;;10.90;92.80;;;;;;5035728;28;20033;-72
2021/12/19 08:15:27;;;;;;;11.57;2.45;;;10.90;92.90;;;;;;5038448;28;20033;-72
2021/12/19 08:17:53;;;;;;;10.85;2.80;;;10.90;92.90;;;;;;5034618;28;20042;-73
2021/12/19 08:20:19;;;;;;;15.77;2.67;;;10.90;92.90;;;;;;5035422;28;20053;-72
2021/12/19 08:22:47;;;;;;;10.93;2.42;;;10.80;92.90;;;;;;5035726;28;20033;-74
2021/12/19 08:25:13;;;;;;;9.65;2.05;;;10.90;92.90;;;;;;5035095;28;20116;-78
2021/12/19 08:27:39;;;;;;;11.43;2.63;;;10.90;92.90;;;;;;5043446;28;20107;-76
2021/12/19 08:30:08;;;;;;;13.18;2.08;;;10.90;93.00;;;;;;5039484;28;20091;-72
2021/12/19 08:32:35;;;;;;;9.27;2.15;;;10.90;93.00;;;;;;5037002;28;20029;-74
2021/12/19 08:35:00;;;;;;;12.38;2.13;;;10.90;93.00;;;;;;5035479;28;20560;-72
2021/12/19 08:37:26;;;;;;;14.23;2.50;;;10.90;93.00;;;;;;5034833;28;20124;-72
2021/12/19 08:39:52;;;;;;;7.25;2.22;;;10.90;93.00;;;;;;5035357;28;20037;-78
2021/12/19 08:42:18;;;;;;;9.98;2.30;;;10.80;93.00;;;;;;5036303;28;20116;-72
2021/12/19 08:44:43;;;;;;;15.50;2.10;;;10.80;93.00;;;;;;5039489;28;20029;-72
2021/12/19 08:47:09;;;;;;;11.27;2.00;;;10.90;93.00;;;;;;5041931;28;20040;-72
2021/12/19 08:49:35;;;;;;;11.23;2.30;;;10.90;93.00;;;;;;5041991;28;20420;-72
2021/12/19 08:52:02;;;;;;;6.55;1.50;;;10.90;93.00;;;;;;5040202;28;20041;-72
2021/12/19 08:54:28;;;;;;;20.42;2.45;;;10.80;93.00;;;;;;5038471;28;20538;-72
2021/12/19 08:56:54;;;;;;;20.35;2.72;;;10.90;93.00;;;;;;5040108;28;20128;-73
2021/12/19 08:59:19;;;;;;;22.67;3.03;;;10.90;93.10;;;;;;5035842;28;20503;-72
2021/12/19 09:01:47;;;;;;;20.38;2.78;;;10.90;93.10;;;;;;5041383;28;20033;-73
2021/12/19 09:04:13;;;;;;;15.02;1.88;;;10.90;93.20;;;;;;5039587;28;20041;-71
2021/12/19 09:06:38;;;;;;;10.52;2.17;;;10.80;93.20;;;;;;5041470;28;20032;-73
2021/12/19 09:09:05;;;;;;;10.48;2.20;;;10.90;93.20;;;;;;5042463;28;20056;-73
2021/12/19 09:11:32;;;;;;;17.63;2.20;;;10.90;93.20;;;;;;5041432;28;20451;-73
2021/12/19 09:13:58;;;;;;;10.15;2.08;;;10.80;93.20;;;;;;5032524;28;20030;-74
2021/12/19 09:16:25;;;;;;;5.63;1.95;;;10.80;93.20;;;;;;5039797;28;20104;-73
2021/12/19 09:18:50;;;;;;;10.07;1.90;;;10.80;93.10;;;;;;5039804;28;20042;-71
2021/12/19 09:21:16;;;;;;;10.55;2.42;;;10.80;93.10;;;;;;5040926;28;20056;-72
2021/12/19 09:23:42;;;;;;;16.83;2.65;;;10.80;93.10;;;;;;5042929;28;20025;-72
2021/12/19 09:26:08;;;;;;;5.03;0.90;;;10.80;93.10;;;;;;5036113;28;20041;-71
2021/12/19 09:28:33;;;;;;;3.45;1.48;;;10.80;93.10;;;;;;5039287;28;20036;-71
2021/12/19 09:30:59;;;;;;;8.05;1.23;;;10.70;93.10;;;;;;5035203;28;20099;-73
2021/12/19 09:33:25;;;;;;;12.38;1.70;;;10.80;93.20;;;;;;5037983;28;20021;-71
2021/12/19 09:35:51;;;;;;;9.27;1.23;;;10.70;93.20;;;;;;5039481;28;20484;-72
2021/12/19 09:38:20;;;;;;;8.32;1.52;;;10.80;93.10;;;;;;5046866;28;20388;-75
2021/12/19 09:40:46;;;;;;;7.80;1.92;;;10.70;93.20;;;;;;5035135;28;20110;-71
2021/12/19 09:43:41;;;;;;;4.20;1.23;;;10.80;93.00;;;;;;5043876;28;20024;-70
2021/12/19 09:46:10;;;;;;;5.35;1.38;;;10.80;92.90;;;;;;5041413;28;20033;-70
2021/12/19 09:48:38;;;;;;;9.07;2.53;;;10.80;92.80;;;;;;5041180;28;20041;-70
2021/12/19 09:51:04;;;;;;;11.93;2.08;;;10.70;92.80;;;;;;5039682;28;20481;-71
2021/12/19 09:53:30;;;;;;;3.85;1.08;;;10.80;92.90;;;;;;5041514;28;20036;-71
2021/12/19 09:55:55;;;;;;;7.30;1.75;;;10.80;92.90;;;;;;5033993;28;20108;-71
2021/12/19 09:58:21;;;;;;;8.60;2.30;;;10.70;92.90;;;;;;5039357;28;20029;-71
2021/12/19 10:00:47;;;;;;;8.98;2.05;;;10.70;92.80;;;;;;5040120;28;20033;-71
2021/12/19 10:03:15;;;;;;;17.35;2.33;;;10.80;92.80;;;;;;5046132;28;20029;-71
2021/12/19 10:05:41;;;;;;;8.27;2.15;;;10.70;92.70;;;;;;5042731;28;20036;-73
2021/12/19 10:08:06;;;;;;;11.02;1.73;;;10.80;92.70;;;;;;5037847;28;20040;-73
2021/12/19 10:10:57;;;;;;;13.50;2.50;;;10.80;92.60;;;;;;5041985;28;20021;-73
2021/12/19 10:13:35;;;;;;;5.80;1.70;;;10.80;92.60;;;;;;5046345;28;20030;-72
2021/12/19 10:16:01;;;;;;;10.63;2.78;;;10.80;92.70;;;;;;5044113;28;20026;-73
2021/12/19 10:18:27;;;;;;;16.23;2.30;;;10.80;92.80;;;;;;5038391;28;20044;-71
2021/12/19 10:21:00;;;;;;;11.10;2.25;;;10.80;92.80;;;;;;5041531;28;20103;-71
2021/12/19 10:23:31;;;;;;;19.80;2.45;;;10.80;92.70;;;;;;5041184;28;20033;-72
2021/12/19 10:25:59;;;;;;;13.52;2.60;;;10.80;92.50;;;;;;5046553;28;20051;-71
2021/12/19 10:28:25;;;;;;;17.63;2.10;;;10.80;92.50;;;;;;5049702;28;20034;-71
2021/12/19 10:30:51;;;;;;;21.75;3.53;;;10.90;92.60;;;;;;5051593;28;20035;-73
2021/12/19 10:33:20;;;;;;;17.52;3.33;;;10.80;92.60;;;;;;5044208;28;20044;-72
2021/12/19 10:36:06;;;;;;;25.75;3.20;;;10.90;92.50;;;;;;5036392;28;20075;-71
2021/12/19 10:38:43;;;;;;;25.10;3.10;;;10.80;92.50;;;;;;5032153;28;20084;-72
2021/12/19 10:41:20;;;;;;;17.67;2.80;;;10.90;92.50;;;;;;5036277;28;20564;-72
2021/12/19 10:44:03;;;;;;;15.18;2.75;;;10.90;92.40;;;;;;5037353;28;20109;-71
2021/12/19 10:46:38;;;;;;;18.08;2.63;;;10.90;92.40;;;;;;5043248;28;20029;-71
2021/12/19 10:49:20;;;;;;;21.02;3.13;;;10.90;92.40;;;;;;5042920;28;20071;-71
2021/12/19 10:51:48;;;;;;;18.60;3.08;;;10.90;92.40;;;;;;5036389;28;20467;-71
2021/12/19 10:54:17;;;;;;;20.58;2.67;;;10.90;92.30;;;;;;5038423;28;20029;-72
2021/12/19 10:56:43;;;;;;;14.27;2.90;;;10.90;92.40;;;;;;5033042;28;20025;-71
2021/12/19 10:59:13;;;;;;;15.18;2.92;;;10.90;92.40;;;;;;5034936;28;20044;-71
2021/12/19 11:01:48;;;;;;;26.65;2.78;;;11.00;92.30;;;;;;5044687;28;20530;-70
2021/12/19 11:04:18;;;;;;;20.77;3.40;;;10.90;92.30;;;;;;5041386;28;20436;-70
2021/12/19 11:06:54;;;;;;;25.85;3.33;;;11.00;92.30;;;;;;5036395;28;20052;-71
2021/12/19 11:09:28;;;;;;;19.85;3.20;;;11.00;92.20;;;;;;5033159;28;20044;-71
2021/12/19 11:11:58;;;;;;;21.90;2.85;;;11.00;92.10;;;;;;5037836;28;20044;-71
2021/12/19 11:14:25;;;;;;;22.13;4.30;;;11.00;92.20;;;;;;5044200;28;20065;-71
2021/12/19 11:16:57;;;;;;;26.08;3.90;;;11.00;92.30;;;;;;5033959;28;20032;-71
2021/12/19 11:19:24;;;;;;;26.55;3.85;;;11.00;92.20;;;;;;5031019;28;20029;-71
2021/12/19 11:21:50;;;;;;;17.20;1.88;;;11.00;92.20;;;;;;5033093;28;20033;-71
2021/12/19 11:24:19;;;;;;;15.63;2.55;;;11.00;92.30;;;;;;5037367;28;20439;-73
2021/12/19 11:26:47;;;;;;;19.35;3.70;;;11.00;92.30;;;;;;5032198;28;20025;-72
2021/12/19 11:29:14;;;;;;;16.35;3.40;;;11.00;92.30;;;;;;5035756;28;20036;-72
2021/12/19 11:31:44;;;;;;;15.98;3.08;;;11.00;92.30;;;;;;5031589;28;20028;-73
2021/12/19 11:34:25;;;;;;;14.23;2.40;;;10.90;92.30;;;;;;5031999;28;20057;-72
2021/12/19 11:36:56;;;;;;;11.13;2.35;;;11.00;92.60;;;;;;5030810;28;20117;-72
2021/12/19 11:39:32;;;;;;;16.05;2.10;;;11.00;92.70;;;;;;5033214;28;20411;-72
2021/12/19 11:42:06;;;;;;;14.43;2.80;;;11.00;92.80;;;;;;5031402;28;20025;-72
2021/12/19 11:44:35;;;;;;;9.65;1.92;;;11.10;92.80;;;;;;5031928;28;20033;-71
2021/12/19 11:47:07;;;;;;;6.78;1.17;;;11.10;92.80;;;;;;5030379;28;20118;-71
2021/12/19 11:49:33;;;;;;;17.05;2.45;;;11.10;92.90;;;;;;5031703;28;20029;-72
2021/12/19 11:52:30;;;;;;;16.98;2.22;;;11.10;92.90;;;;;;5032599;28;20060;-72
2021/12/19 11:55:14;;;;;;;7.93;1.15;;;11.10;92.90;;;;;;5029794;28;20040;-72
2021/12/19 11:57:44;;;;;;;9.32;1.48;;;11.20;93.00;;;;;;5038616;28;20368;-72
2021/12/19 12:00:27;;;;;;;17.92;1.80;;;11.10;92.90;;;;;;5040277;28;20034;-72
2021/12/19 12:03:11;;;;;;;10.90;1.30;;;11.20;93.00;;;;;;5040183;28;20033;-72
2021/12/19 12:05:37;;;;;;;17.60;1.92;;;11.20;92.90;;;;;;5042342;28;20080;-72
2021/12/19 12:08:09;;;;;;;4.28;1.05;;;11.30;92.90;;;;;;5032005;28;20469;-72
2021/12/19 12:10:51;;;;;;;4.97;1.25;;;11.30;92.90;;;;;;5037733;28;20588;-77
2021/12/19 12:13:39;;;;;;;15.52;1.52;;;11.30;92.90;;;;;;5032046;28;20064;-73
2021/12/19 12:18:56;;;;;;;5.68;1.30;;;11.40;92.80;;;;;;5031039;28;20120;-74
2021/12/19 12:21:24;;;;;;;2.80;1.33;;;11.30;92.80;;;;;;5029937;28;20033;-73
2021/12/19 12:23:54;;;;;;;10.57;1.92;;;11.30;92.80;;;;;;5045580;28;20044;-75
2021/12/19 12:26:25;;;;;;;6.20;0.95;;;11.30;92.80;;;;;;5042149;28;20033;-73
2021/12/19 12:28:51;;;;;;;5.32;1.20;;;11.30;92.80;;;;;;5042846;28;20035;-73
2021/12/19 12:31:17;;;;;;;7.88;1.23;;;11.40;92.80;;;;;;5033366;28;20029;-72
2021/12/19 12:33:43;;;;;;;9.52;1.80;;;11.40;92.70;;;;;;5040097;28;20026;-72
2021/12/19 12:36:08;;;;;;;10.38;1.88;;;11.40;92.70;;;;;;5031222;28;20029;-73
2021/12/19 12:38:34;;;;;;;13.98;2.60;;;11.40;92.70;;;;;;5043828;28;20489;-72
2021/12/19 12:41:25;;;;;;;9.60;4.03;;;11.30;92.10;;;;;;5054814;28;20112;-72
2021/12/19 12:43:46;;;;;;;16.17;2.40;;;11.30;92.40;;;;;;5054012;28;20031;-72
2021/12/19 12:46:17;;;;;;;14.68;2.47;;;11.30;92.50;;;;;;5035194;28;20392;-72
2021/12/19 12:48:57;;;;;;;11.85;1.73;;;11.20;92.50;;;;;;5034500;28;20033;-73
2021/12/19 12:51:31;;;;;;;20.13;2.03;;;11.20;92.60;;;;;;5038496;28;20057;-73
2021/12/19 12:54:05;;;;;;;6.85;1.85;;;11.30;92.70;;;;;;5041714;28;20250;-72
2021/12/19 12:56:34;;;;;;;;;;;11.20;92.80;;;;;;5043443;28;20075;-72
2021/12/19 12:59:02;;;;;;;10.85;2.00;;;11.20;92.90;;;;;;5053244;28;19921;-74
2021/12/19 13:01:29;;;;;;;14.25;2.15;;;11.30;92.80;;;;;;5052342;28;20035;-73
2021/12/19 13:04:05;;;;;;;21.95;3.25;;;11.20;92.70;;;;;;5039901;28;20032;-73
2021/12/19 13:06:40;;;;;;;18.30;2.97;;;11.30;92.70;;;;;;5053536;28;20131;-74
2021/12/19 13:09:10;;;;;;;16.70;2.50;;;11.20;92.50;;;;;;5054213;28;20029;-74
2021/12/19 13:11:37;;;;;;;14.95;2.45;;;11.30;92.40;;;;;;5037346;28;20045;-74
2021/12/19 13:14:13;;;;;;;16.27;2.53;;;11.30;92.30;;;;;;5038831;28;20035;-74
2021/12/19 13:16:48;;;;;;;12.23;2.65;;;11.20;92.20;;;;;;5033149;28;20060;-74
2021/12/19 13:19:36;;;;;;;29.65;3.97;;;11.30;92.10;;;;;;5032949;28;20506;-73
2021/12/19 13:22:04;;;;;;;24.10;3.22;;;11.20;92.20;;;;;;5033713;28;20035;-73
2021/12/19 13:24:31;;;;;;;15.95;2.08;;;11.30;92.10;;;;;;5043012;28;20542;-75
2021/12/19 13:27:12;;;;;;;24.75;2.20;;;11.20;92.10;;;;;;5037876;28;20033;-74
2021/12/19 13:29:40;;;;;;;15.07;2.75;;;11.20;92.20;;;;;;5035086;28;20417;-73
2021/12/19 13:32:19;;;;;;;12.30;2.08;;;11.30;92.00;;;;;;5042451;28;20025;-74
2021/12/19 13:34:46;;;;;;;9.32;2.13;;;11.20;92.10;;;;;;5052621;28;20499;-74
2021/12/19 13:37:12;;;;;;;3.35;0.85;;;11.20;92.40;;;;;;5051937;28;20044;-74
2021/12/19 13:39:38;;;;;;;11.73;1.80;;;11.30;92.80;;;;;;5040712;28;20036;-73
2021/12/19 13:42:11;;;;;;;17.08;2.40;;;11.20;92.80;;;;;;5038738;28;20535;-73
2021/12/19 13:44:38;;;;;;;11.15;1.95;;;11.30;92.70;;;;;;5041602;28;20091;-73
2021/12/19 13:47:23;;;;;;;7.78;1.60;;;11.30;92.80;;;;;;5037132;28;20044;-73
2021/12/19 13:49:49;;;;;;;22.05;3.88;;;11.30;92.80;;;;;;5033807;28;20056;-73